WEATHER/FLIGHT PLANNING

Hattiesburg Radar

 

 

 

 

Weather Links

Flight Planning Links

 

METAR

2014/09/16 03:53 KHBG 160353Z AUTO 23003KT 10SM CLR 26/23 A3010 RMK AO2 SLP188 T02560228

TAF

2014/09/15 18:27 TAF KHBG 151725Z 1518/1618 02004KT P6SM SCT040 FM151900 04006KT P6SM VCTS BKN030CB FM160100 05003KT P6SM BKN250 FM161100 00000KT 4SM BR BKN250 FM161300 01005KT P6SM BKN250